WLF1155 EGLL-EKCH
Flight info
| Callsign | WLF1155 |
|---|---|
| Flight time | 1h 30m |
| Altitude | 39000 |
| Route | BPK Q295 SOMVA DCT MAVAS DCT ROCZO DCT DOSUR P729 TUDLO |
| Aircraft | B738/M-SDE2E3FGHIRWXY/LB1 |
Departure
| Time | 2026-05-04 16:30 |
|---|---|
| Airport | London Heathrow Airport (EGLL) |
Arrival
| Time | 2026-05-04 18:00 |
|---|---|
| Airport | Copenhagen Kastrup Airport (EKCH) |
| Time | Latitude | Longitude | Altitude | Speed | Heading |
|---|---|---|---|---|---|
| 2026-05-04 15:28 | 51.47361 | -0.48580 | 85 ft | 0 kts | 270° |
| 2026-05-04 15:50 | 51.47361 | -0.48579 | 85 ft | 0 kts | 270° |
| 2026-05-04 16:16 | 51.47352 | -0.48479 | 86 ft | 10 kts | 338° |
| 2026-05-04 16:17 | 51.47319 | -0.48473 | 85 ft | 40 kts | 360° |
| 2026-05-04 16:19 | 51.47248 | -0.48471 | 85 ft | 0 kts | 358° |
| 2026-05-04 16:20 | 51.47266 | -0.48472 | 85 ft | 7 kts | 358° |
| 2026-05-04 16:21 | 51.47518 | -0.48476 | 88 ft | 11 kts | 359° |
| 2026-05-04 16:22 | 51.47579 | -0.48275 | 89 ft | 14 kts | 90° |
| 2026-05-04 16:22 | 51.47581 | -0.47654 | 87 ft | 23 kts | 90° |
| 2026-05-04 16:23 | 51.47591 | -0.46800 | 88 ft | 24 kts | 86° |
| 2026-05-04 16:24 | 51.47594 | -0.45848 | 89 ft | 21 kts | 90° |
| 2026-05-04 16:25 | 51.47596 | -0.45352 | 85 ft | 24 kts | 90° |
| 2026-05-04 16:26 | 51.47593 | -0.44216 | 85 ft | 27 kts | 92° |
| 2026-05-04 16:26 | 51.47600 | -0.43569 | 87 ft | 6 kts | 64° |
| 2026-05-04 16:27 | 51.47665 | -0.43447 | 86 ft | 16 kts | 44° |
| 2026-05-04 16:28 | 51.47768 | -0.43510 | 86 ft | 0 kts | 268° |
| 2026-05-04 16:29 | 51.47764 | -0.44733 | 88 ft | 120 kts | 270° |
| 2026-05-04 16:30 | 51.47792 | -0.50309 | 1430 ft | 178 kts | 269° |
| 2026-05-04 16:31 | 51.47646 | -0.54475 | 2439 ft | 208 kts | 276° |
| 2026-05-04 16:31 | 51.49474 | -0.61256 | 3608 ft | 254 kts | 303° |
| 2026-05-04 16:32 | 51.53690 | -0.65693 | 5487 ft | 269 kts | 5° |
| 2026-05-04 16:33 | 51.57091 | -0.63390 | 5990 ft | 273 kts | 52° |
| 2026-05-04 16:33 | 51.59340 | -0.58347 | 5994 ft | 278 kts | 54° |
| 2026-05-04 16:34 | 51.61627 | -0.53358 | 5997 ft | 276 kts | 53° |
| 2026-05-04 16:34 | 51.62726 | -0.50842 | 6005 ft | 275 kts | 60° |
| 2026-05-04 16:35 | 51.65273 | -0.42558 | 5999 ft | 277 kts | 65° |
| 2026-05-04 16:35 | 51.67806 | -0.34184 | 6034 ft | 278 kts | 64° |
| 2026-05-04 16:36 | 51.68662 | -0.31384 | 6037 ft | 279 kts | 64° |
| 2026-05-04 16:36 | 51.70389 | -0.25765 | 6028 ft | 279 kts | 64° |
| 2026-05-04 16:37 | 51.72108 | -0.20121 | 6021 ft | 281 kts | 64° |
| 2026-05-04 16:37 | 51.72978 | -0.17307 | 6014 ft | 279 kts | 64° |
| 2026-05-04 16:37 | 51.74684 | -0.11736 | 6020 ft | 275 kts | 65° |
| 2026-05-04 16:38 | 51.75521 | -0.05715 | 6640 ft | 281 kts | 85° |
| 2026-05-04 16:39 | 51.76222 | 0.03845 | 8782 ft | 293 kts | 84° |
| 2026-05-04 16:39 | 51.76745 | 0.10399 | 10336 ft | 300 kts | 83° |
| 2026-05-04 16:40 | 51.77328 | 0.17595 | 10842 ft | 343 kts | 83° |
| 2026-05-04 16:40 | 51.77938 | 0.25402 | 12104 ft | 356 kts | 84° |
| 2026-05-04 16:41 | 51.78568 | 0.33340 | 13695 ft | 361 kts | 83° |
| 2026-05-04 16:41 | 51.79558 | 0.45627 | 15846 ft | 373 kts | 84° |
| 2026-05-04 16:42 | 51.80555 | 0.58212 | 18089 ft | 381 kts | 84° |
| 2026-05-04 16:43 | 51.81469 | 0.66765 | 19220 ft | 394 kts | 73° |
| 2026-05-04 16:43 | 51.83631 | 0.75006 | 20397 ft | 402 kts | 67° |
| 2026-05-04 16:43 | 51.84762 | 0.79165 | 20953 ft | 407 kts | 68° |
| 2026-05-04 16:44 | 51.89232 | 0.96377 | 23163 ft | 423 kts | 68° |
| 2026-05-04 16:45 | 51.91489 | 1.05228 | 24202 ft | 427 kts | 68° |
| 2026-05-04 16:46 | 51.94918 | 1.18710 | 25558 ft | 436 kts | 68° |
| 2026-05-04 16:46 | 51.97229 | 1.27865 | 26353 ft | 442 kts | 69° |
| 2026-05-04 16:47 | 51.99572 | 1.37144 | 27244 ft | 446 kts | 69° |
| 2026-05-04 16:47 | 52.01917 | 1.46465 | 28024 ft | 452 kts | 69° |
| 2026-05-04 16:48 | 52.05492 | 1.60774 | 29083 ft | 461 kts | 69° |
| 2026-05-04 16:48 | 52.06694 | 1.65607 | 29433 ft | 463 kts | 69° |
| 2026-05-04 16:49 | 52.09095 | 1.75291 | 30132 ft | 467 kts | 70° |
| 2026-05-04 16:49 | 52.11200 | 1.83810 | 30580 ft | 471 kts | 70° |
| 2026-05-04 16:50 | 52.13522 | 1.93253 | 31069 ft | 475 kts | 70° |
| 2026-05-04 16:50 | 52.15527 | 2.01436 | 31447 ft | 479 kts | 70° |
| 2026-05-04 16:51 | 52.17720 | 2.10419 | 32045 ft | 478 kts | 70° |
| 2026-05-04 16:51 | 52.18860 | 2.15105 | 32426 ft | 476 kts | 70° |
| 2026-05-04 16:51 | 52.21040 | 2.24102 | 33014 ft | 476 kts | 70° |
| 2026-05-04 16:52 | 52.23010 | 2.32258 | 33514 ft | 477 kts | 70° |
| 2026-05-04 16:52 | 52.23926 | 2.36059 | 33797 ft | 476 kts | 70° |
| 2026-05-04 16:53 | 52.25940 | 2.44441 | 34298 ft | 475 kts | 70° |
| 2026-05-04 16:53 | 52.29119 | 2.57745 | 34870 ft | 477 kts | 70° |
| 2026-05-04 16:54 | 52.30205 | 2.62306 | 35156 ft | 476 kts | 70° |
| 2026-05-04 16:55 | 52.33483 | 2.79669 | 36025 ft | 473 kts | 76° |
| 2026-05-04 16:55 | 52.34852 | 2.87741 | 36454 ft | 472 kts | 76° |
| 2026-05-04 16:56 | 52.36441 | 2.96890 | 36843 ft | 472 kts | 75° |
| 2026-05-04 16:56 | 52.38653 | 3.09511 | 37199 ft | 476 kts | 76° |
| 2026-05-04 16:57 | 52.39633 | 3.14741 | 37524 ft | 475 kts | 70° |
| 2026-05-04 16:57 | 52.42654 | 3.23938 | 38008 ft | 475 kts | 57° |
| 2026-05-04 16:58 | 52.47903 | 3.36635 | 38610 ft | 474 kts | 56° |
| 2026-05-04 16:58 | 52.49712 | 3.41035 | 38965 ft | 468 kts | 56° |
| 2026-05-04 17:00 | 52.60580 | 3.68087 | 39006 ft | 475 kts | 57° |
| 2026-05-04 17:01 | 52.69645 | 3.90954 | 38995 ft | 478 kts | 57° |
| 2026-05-04 17:02 | 52.76867 | 4.09313 | 38982 ft | 476 kts | 57° |
| 2026-05-04 17:03 | 52.82233 | 4.23040 | 38996 ft | 473 kts | 57° |
| 2026-05-04 17:03 | 52.87562 | 4.36743 | 38997 ft | 471 kts | 57° |
| 2026-05-04 17:04 | 52.94608 | 4.54990 | 39018 ft | 470 kts | 58° |
| 2026-05-04 17:05 | 53.01621 | 4.73282 | 39023 ft | 469 kts | 58° |
| 2026-05-04 17:06 | 53.06863 | 4.87032 | 39023 ft | 470 kts | 58° |
| 2026-05-04 17:07 | 53.11509 | 4.99278 | 39022 ft | 471 kts | 58° |
| 2026-05-04 17:07 | 53.15580 | 5.10064 | 39031 ft | 472 kts | 58° |
| 2026-05-04 17:08 | 53.20812 | 5.24001 | 39021 ft | 473 kts | 58° |
| 2026-05-04 17:09 | 53.24302 | 5.33337 | 39023 ft | 474 kts | 58° |
| 2026-05-04 17:09 | 53.27788 | 5.42695 | 39022 ft | 475 kts | 58° |
| 2026-05-04 17:10 | 53.36494 | 5.66226 | 39018 ft | 476 kts | 58° |
| 2026-05-04 17:11 | 53.39971 | 5.75685 | 39018 ft | 477 kts | 58° |
| 2026-05-04 17:12 | 53.45170 | 5.89897 | 39016 ft | 477 kts | 58° |
| 2026-05-04 17:13 | 53.53220 | 6.12066 | 39017 ft | 477 kts | 58° |
| 2026-05-04 17:14 | 53.60366 | 6.30853 | 39016 ft | 477 kts | 54° |
| 2026-05-04 17:15 | 53.66189 | 6.44432 | 39015 ft | 477 kts | 53° |
| 2026-05-04 17:16 | 53.73795 | 6.62596 | 39013 ft | 477 kts | 54° |
| 2026-05-04 17:17 | 53.81379 | 6.80992 | 39017 ft | 477 kts | 54° |
| 2026-05-04 17:18 | 53.88868 | 6.99280 | 39011 ft | 477 kts | 54° |
| 2026-05-04 17:19 | 53.95643 | 7.15933 | 39009 ft | 477 kts | 54° |
| 2026-05-04 17:20 | 54.01383 | 7.30129 | 39012 ft | 477 kts | 54° |
| 2026-05-04 17:20 | 54.06263 | 7.42264 | 39013 ft | 477 kts | 54° |
| 2026-05-04 17:21 | 54.13288 | 7.59841 | 39014 ft | 477 kts | 54° |
| 2026-05-04 17:22 | 54.17008 | 7.69195 | 39013 ft | 477 kts | 54° |
| 2026-05-04 17:23 | 54.24374 | 7.87827 | 39030 ft | 477 kts | 55° |
| 2026-05-04 17:24 | 54.29884 | 8.01854 | 39004 ft | 477 kts | 55° |
| 2026-05-04 17:25 | 54.37207 | 8.20616 | 39012 ft | 477 kts | 55° |
| 2026-05-04 17:26 | 54.43883 | 8.40349 | 39005 ft | 478 kts | 60° |
| 2026-05-04 17:27 | 54.52017 | 8.65300 | 38998 ft | 479 kts | 59° |
| 2026-05-04 17:28 | 54.58555 | 8.85292 | 38995 ft | 479 kts | 59° |
| 2026-05-04 17:29 | 54.63464 | 9.00418 | 38560 ft | 482 kts | 60° |
| 2026-05-04 17:29 | 54.68321 | 9.15481 | 37735 ft | 476 kts | 60° |
| 2026-05-04 17:30 | 54.73130 | 9.30479 | 36947 ft | 483 kts | 60° |
| 2026-05-04 17:31 | 54.76399 | 9.40736 | 36435 ft | 488 kts | 60° |
| 2026-05-04 17:31 | 54.81307 | 9.56223 | 35407 ft | 491 kts | 60° |
| 2026-05-04 17:32 | 54.84595 | 9.66654 | 34693 ft | 493 kts | 60° |
| 2026-05-04 17:33 | 54.89498 | 9.82292 | 33610 ft | 489 kts | 60° |
| 2026-05-04 17:33 | 54.91118 | 9.87480 | 33183 ft | 488 kts | 60° |
| 2026-05-04 17:34 | 54.95975 | 10.03093 | 31998 ft | 495 kts | 60° |
| 2026-05-04 17:34 | 54.97617 | 10.08393 | 31624 ft | 500 kts | 60° |
| 2026-05-04 17:35 | 55.02376 | 10.23846 | 30731 ft | 472 kts | 60° |
| 2026-05-04 17:35 | 55.05446 | 10.33859 | 29803 ft | 465 kts | 60° |
| 2026-05-04 17:35 | 55.06941 | 10.38754 | 29304 ft | 461 kts | 60° |
| 2026-05-04 17:36 | 55.08439 | 10.43666 | 28833 ft | 456 kts | 61° |
| 2026-05-04 17:36 | 55.09919 | 10.48527 | 28348 ft | 450 kts | 61° |
| 2026-05-04 17:36 | 55.11376 | 10.53327 | 27857 ft | 446 kts | 61° |
| 2026-05-04 17:36 | 55.12818 | 10.58085 | 27371 ft | 441 kts | 61° |
| 2026-05-04 17:37 | 55.14247 | 10.62807 | 26899 ft | 437 kts | 61° |
| 2026-05-04 17:37 | 55.15654 | 10.67469 | 26428 ft | 432 kts | 61° |
| 2026-05-04 17:37 | 55.17050 | 10.72100 | 26035 ft | 427 kts | 61° |
| 2026-05-04 17:37 | 55.18414 | 10.76637 | 25805 ft | 417 kts | 61° |
| 2026-05-04 17:38 | 55.19760 | 10.81118 | 25422 ft | 413 kts | 61° |
| 2026-05-04 17:38 | 55.21091 | 10.85558 | 24944 ft | 411 kts | 61° |
| 2026-05-04 17:38 | 55.22418 | 10.89995 | 24471 ft | 410 kts | 61° |
| 2026-05-04 17:38 | 55.23735 | 10.94408 | 24045 ft | 408 kts | 61° |
| 2026-05-04 17:39 | 55.26302 | 11.03034 | 23184 ft | 402 kts | 61° |
| 2026-05-04 17:39 | 55.27583 | 11.07351 | 22708 ft | 399 kts | 60° |
| 2026-05-04 17:39 | 55.28858 | 11.11655 | 22209 ft | 398 kts | 60° |
| 2026-05-04 17:40 | 55.30131 | 11.15958 | 21715 ft | 397 kts | 60° |
| 2026-05-04 17:40 | 55.31381 | 11.20191 | 21265 ft | 395 kts | 60° |
| 2026-05-04 17:40 | 55.32640 | 11.24463 | 20823 ft | 392 kts | 60° |
| 2026-05-04 17:40 | 55.33886 | 11.28700 | 20386 ft | 390 kts | 60° |
| 2026-05-04 17:41 | 55.35126 | 11.32922 | 19951 ft | 388 kts | 60° |
| 2026-05-04 17:41 | 55.36357 | 11.37124 | 19527 ft | 386 kts | 60° |
| 2026-05-04 17:41 | 55.37585 | 11.41322 | 19114 ft | 384 kts | 60° |
| 2026-05-04 17:41 | 55.38803 | 11.45492 | 18689 ft | 383 kts | 60° |
| 2026-05-04 17:42 | 55.40021 | 11.49670 | 18181 ft | 384 kts | 60° |
| 2026-05-04 17:42 | 55.41240 | 11.53854 | 17620 ft | 385 kts | 61° |
| 2026-05-04 17:42 | 55.42460 | 11.58054 | 17069 ft | 385 kts | 61° |
| 2026-05-04 17:42 | 55.43701 | 11.62217 | 16518 ft | 383 kts | 56° |
| 2026-05-04 17:43 | 55.45403 | 11.65723 | 15954 ft | 372 kts | 37° |
| 2026-05-04 17:43 | 55.47347 | 11.68657 | 15436 ft | 364 kts | 37° |
| 2026-05-04 17:43 | 55.49242 | 11.71536 | 14916 ft | 355 kts | 37° |
| 2026-05-04 17:43 | 55.51067 | 11.74344 | 14449 ft | 340 kts | 37° |
| 2026-05-04 17:44 | 55.52805 | 11.77045 | 13925 ft | 329 kts | 37° |
| 2026-05-04 17:44 | 55.54509 | 11.79706 | 13370 ft | 323 kts | 37° |
| 2026-05-04 17:44 | 55.56175 | 11.82317 | 12808 ft | 318 kts | 38° |
| 2026-05-04 17:44 | 55.57815 | 11.84891 | 12298 ft | 313 kts | 38° |
| 2026-05-04 17:45 | 55.59440 | 11.87446 | 11766 ft | 314 kts | 38° |
| 2026-05-04 17:45 | 55.61076 | 11.90023 | 11244 ft | 314 kts | 38° |
| 2026-05-04 17:45 | 55.62694 | 11.92578 | 10717 ft | 309 kts | 38° |
| 2026-05-04 17:45 | 55.64399 | 11.94778 | 10210 ft | 299 kts | 19° |
| 2026-05-04 17:46 | 55.66374 | 11.95752 | 10072 ft | 294 kts | 6° |
| 2026-05-04 17:46 | 55.68388 | 11.96405 | 9978 ft | 292 kts | 5° |
| 2026-05-04 17:46 | 55.70384 | 11.97014 | 9946 ft | 291 kts | 5° |
| 2026-05-04 17:46 | 55.72383 | 11.97617 | 9957 ft | 292 kts | 5° |
| 2026-05-04 17:47 | 55.74393 | 11.98221 | 9952 ft | 293 kts | 5° |
| 2026-05-04 17:47 | 55.76396 | 11.98827 | 9947 ft | 293 kts | 5° |
| 2026-05-04 17:47 | 55.78398 | 11.99438 | 9935 ft | 288 kts | 5° |
| 2026-05-04 17:47 | 55.80328 | 12.00043 | 9923 ft | 275 kts | 5° |
| 2026-05-04 17:48 | 55.82182 | 12.00637 | 9927 ft | 268 kts | 5° |
| 2026-05-04 17:48 | 55.84015 | 12.01228 | 9936 ft | 268 kts | 5° |
| 2026-05-04 17:48 | 55.85855 | 12.01818 | 9827 ft | 272 kts | 5° |
| 2026-05-04 17:48 | 55.87726 | 12.02415 | 9420 ft | 273 kts | 5° |
| 2026-05-04 17:49 | 55.89576 | 12.03105 | 9008 ft | 273 kts | 14° |
| 2026-05-04 17:49 | 55.91172 | 12.04919 | 8608 ft | 278 kts | 43° |
| 2026-05-04 17:49 | 55.92136 | 12.07873 | 8228 ft | 279 kts | 72° |
| 2026-05-04 17:49 | 55.92239 | 12.11291 | 7846 ft | 278 kts | 102° |
| 2026-05-04 17:50 | 55.91634 | 12.14520 | 7498 ft | 274 kts | 114° |
| 2026-05-04 17:50 | 55.90904 | 12.17655 | 7120 ft | 273 kts | 115° |
| 2026-05-04 17:50 | 55.90050 | 12.20605 | 6842 ft | 263 kts | 124° |
| 2026-05-04 17:50 | 55.89078 | 12.23290 | 6583 ft | 253 kts | 126° |
| 2026-05-04 17:51 | 55.88132 | 12.25865 | 6340 ft | 245 kts | 126° |
| 2026-05-04 17:51 | 55.87220 | 12.28376 | 6063 ft | 238 kts | 125° |
| 2026-05-04 17:51 | 55.86348 | 12.30830 | 5792 ft | 232 kts | 124° |
| 2026-05-04 17:51 | 55.85501 | 12.33248 | 5528 ft | 231 kts | 124° |
| 2026-05-04 17:52 | 55.84624 | 12.35761 | 5321 ft | 250 kts | 123° |
| 2026-05-04 17:52 | 55.83682 | 12.38471 | 5077 ft | 263 kts | 123° |
| 2026-05-04 17:52 | 55.82721 | 12.41264 | 4826 ft | 266 kts | 123° |
| 2026-05-04 17:52 | 55.81764 | 12.44055 | 4566 ft | 264 kts | 122° |
| 2026-05-04 17:53 | 55.80808 | 12.46840 | 4311 ft | 262 kts | 122° |
| 2026-05-04 17:53 | 55.79859 | 12.49607 | 4075 ft | 261 kts | 122° |
| 2026-05-04 17:53 | 55.78918 | 12.52349 | 4014 ft | 261 kts | 122° |
| 2026-05-04 17:53 | 55.77981 | 12.55080 | 3997 ft | 257 kts | 122° |
| 2026-05-04 17:54 | 55.77076 | 12.57837 | 3992 ft | 259 kts | 114° |
| 2026-05-04 17:54 | 55.76770 | 12.60916 | 4000 ft | 258 kts | 84° |
| 2026-05-04 17:54 | 55.77076 | 12.64050 | 4003 ft | 258 kts | 76° |
| 2026-05-04 17:54 | 55.77465 | 12.67154 | 3993 ft | 257 kts | 75° |
| 2026-05-04 17:55 | 55.77857 | 12.70243 | 3998 ft | 256 kts | 75° |
| 2026-05-04 17:55 | 55.78250 | 12.73317 | 3988 ft | 248 kts | 75° |
| 2026-05-04 17:55 | 55.78626 | 12.76237 | 3991 ft | 244 kts | 75° |
| 2026-05-04 17:55 | 55.78851 | 12.79232 | 3986 ft | 248 kts | 94° |
| 2026-05-04 17:56 | 55.78296 | 12.82112 | 3846 ft | 249 kts | 126° |
| 2026-05-04 17:56 | 55.77033 | 12.84063 | 3645 ft | 234 kts | 157° |
| 2026-05-04 17:56 | 55.75526 | 12.84671 | 3431 ft | 216 kts | 187° |
| 2026-05-04 17:56 | 55.74094 | 12.84264 | 3199 ft | 203 kts | 200° |
| 2026-05-04 17:57 | 55.72932 | 12.83018 | 2808 ft | 194 kts | 233° |
| 2026-05-04 17:57 | 55.72025 | 12.81280 | 2525 ft | 193 kts | 222° |
| 2026-05-04 17:57 | 55.70970 | 12.79889 | 2266 ft | 186 kts | 224° |
| 2026-05-04 17:57 | 55.70040 | 12.78411 | 2018 ft | 173 kts | 226° |
| 2026-05-04 17:58 | 55.69172 | 12.77041 | 1810 ft | 162 kts | 226° |
| 2026-05-04 17:58 | 55.68333 | 12.75734 | 1568 ft | 159 kts | 226° |
| 2026-05-04 17:58 | 55.67506 | 12.74450 | 1347 ft | 157 kts | 225° |
| 2026-05-04 17:58 | 55.66687 | 12.73183 | 1143 ft | 155 kts | 225° |
| 2026-05-04 17:59 | 55.65898 | 12.71967 | 923 ft | 144 kts | 226° |
| 2026-05-04 17:59 | 55.65159 | 12.70828 | 699 ft | 140 kts | 224° |
| 2026-05-04 17:59 | 55.63688 | 12.68536 | 332 ft | 141 kts | 224° |
| 2026-05-04 18:00 | 55.63185 | 12.67776 | 237 ft | 141 kts | 224° |
| 2026-05-04 18:00 | 55.62440 | 12.66618 | 64 ft | 142 kts | 225° |
| 2026-05-04 18:00 | 55.61752 | 12.65532 | 23 ft | 110 kts | 221° |
| 2026-05-04 18:00 | 55.61350 | 12.64902 | 28 ft | 40 kts | 224° |
| 2026-05-04 18:01 | 55.61239 | 12.64529 | 23 ft | 24 kts | 252° |
| 2026-05-04 18:01 | 55.61199 | 12.64313 | 23 ft | 8 kts | 253° |
| 2026-05-04 18:01 | 55.61190 | 12.64222 | 23 ft | 7 kts | 275° |
| 2026-05-04 18:02 | 55.61270 | 12.64115 | 23 ft | 12 kts | 9° |
| 2026-05-04 18:02 | 55.61369 | 12.64213 | 25 ft | 20 kts | 36° |
| 2026-05-04 18:02 | 55.61500 | 12.64361 | 25 ft | 22 kts | 34° |
| 2026-05-04 18:02 | 55.61617 | 12.64497 | 26 ft | 18 kts | 33° |
| 2026-05-04 18:03 | 55.61713 | 12.64606 | 25 ft | 16 kts | 34° |
| 2026-05-04 18:03 | 55.61798 | 12.64704 | 24 ft | 13 kts | 32° |
| 2026-05-04 18:03 | 55.61869 | 12.64785 | 24 ft | 14 kts | 33° |
| 2026-05-04 18:03 | 55.61959 | 12.64888 | 22 ft | 17 kts | 31° |
| 2026-05-04 18:04 | 55.62067 | 12.65011 | 24 ft | 16 kts | 34° |
| 2026-05-04 18:04 | 55.62113 | 12.65066 | 27 ft | 0 kts | 34° |
| 2026-05-04 18:05 | 55.62117 | 12.65071 | 23 ft | 0 kts | 33° |
| 2026-05-04 18:06 | 55.62120 | 12.65074 | 23 ft | 0 kts | 33° |
| 2026-05-04 18:07 | 55.62142 | 12.65100 | 25 ft | 8 kts | 34° |
| 2026-05-04 18:07 | 55.62202 | 12.65169 | 27 ft | 11 kts | 31° |
| 2026-05-04 18:08 | 55.62264 | 12.65197 | 26 ft | 8 kts | 2° |
| 2026-05-04 18:08 | 55.62314 | 12.65201 | 24 ft | 7 kts | 5° |
| 2026-05-04 18:08 | 55.62366 | 12.65203 | 25 ft | 8 kts | 359° |
| 2026-05-04 18:08 | 55.62419 | 12.65200 | 23 ft | 8 kts | 357° |
| 2026-05-04 18:09 | 55.62591 | 12.65179 | 23 ft | 14 kts | 359° |
| 2026-05-04 18:09 | 55.62722 | 12.65181 | 26 ft | 5 kts | 356° |
| 2026-05-04 18:10 | 55.62734 | 12.65180 | 27 ft | 0 kts | 357° |